Time;durP1;ratioP1;P1;durP2;ratioP2;P2;SDS_P1;SDS_P2;PMS_P1;PMS_P2;Temp;Humidity;BMP_temperature;BMP_pressure;BME280_temperature;BME280_humidity;BME280_pressure;Samples;Min_cycle;Max_cycle;Signal;HPM_P1;HPM_P2
2022/09/20 00:01:31;;;;;;;6.00;1.38;;;;;;;15.73;67.18;102400.25;4937540;28;20043;-42
2022/09/20 00:03:59;;;;;;;3.08;1.10;;;;;;;15.84;67.02;102400.41;4938533;28;20070;-42
2022/09/20 00:06:28;;;;;;;4.57;1.45;;;;;;;15.77;67.25;102409.94;4940921;28;20042;-41
2022/09/20 00:08:53;;;;;;;4.13;1.10;;;;;;;15.85;66.77;102398.66;4943175;28;20034;-42
2022/09/20 00:11:21;;;;;;;8.73;1.48;;;;;;;15.89;66.46;102405.72;4944808;28;20023;-41
2022/09/20 00:13:48;;;;;;;6.30;1.55;;;;;;;15.77;67.25;102420.47;4940976;28;20051;-44
2022/09/20 00:16:17;;;;;;;5.00;1.33;;;;;;;15.77;67.22;102419.56;4950090;28;20667;-43
2022/09/20 00:18:47;;;;;;;3.58;1.13;;;;;;;15.90;67.16;102425.91;4943968;28;20057;-43
2022/09/20 00:21:17;;;;;;;5.22;1.20;;;;;;;15.97;66.86;102418.16;4950072;28;20027;-43
2022/09/20 00:23:43;;;;;;;5.68;1.40;;;;;;;15.88;67.44;102428.50;4937018;28;20032;-43
2022/09/20 00:26:08;;;;;;;5.53;1.35;;;;;;;15.96;67.11;102434.78;4941576;28;20036;-43
2022/09/20 00:28:34;;;;;;;5.13;1.33;;;;;;;15.90;67.67;102429.44;4947338;28;20090;-43
2022/09/20 00:30:59;;;;;;;5.15;1.30;;;;;;;15.94;67.45;102423.34;4940349;28;20036;-43
2022/09/20 00:35:06;;;;;;;4.93;1.17;;;;;;;15.88;68.25;102412.72;4946791;28;20137;-43
2022/09/20 00:36:13;;;;;;;5.20;1.30;;;;;;;15.91;67.85;102409.28;4941799;28;20041;-43
2022/09/20 00:38:39;;;;;;;6.65;1.23;;;;;;;15.75;69.20;102409.00;4945710;28;20122;-43
2022/09/20 00:41:04;;;;;;;5.70;1.38;;;;;;;15.85;68.89;102396.03;4942350;28;20031;-42
2022/09/20 00:43:36;;;;;;;5.05;1.15;;;;;;;15.84;69.00;102387.25;4940220;28;20057;-42
2022/09/20 00:46:03;;;;;;;6.05;1.30;;;;;;;15.83;69.14;102386.38;4944649;28;20038;-42
2022/09/20 00:48:30;;;;;;;3.97;1.20;;;;;;;15.56;70.20;102395.53;4936540;28;20138;-42
2022/09/20 00:51:00;;;;;;;4.22;1.20;;;;;;;15.73;69.70;102394.97;4945353;28;20086;-42
2022/09/20 00:53:38;;;;;;;4.45;1.25;;;;;;;15.77;69.58;102401.16;4946344;28;20587;-43
2022/09/20 00:56:28;;;;;;;4.00;1.13;;;;;;;15.73;69.83;102397.59;4932847;28;20039;-42
2022/09/20 00:59:05;;;;;;;4.43;1.20;;;;;;;15.58;70.12;102399.06;4948023;28;20046;-42
2022/09/20 01:01:31;;;;;;;3.65;1.20;;;;;;;15.37;71.18;102395.16;4942618;28;20074;-42
2022/09/20 01:03:57;;;;;;;4.70;1.40;;;;;;;15.33;71.69;102398.63;4952213;28;20034;-43
2022/09/20 01:06:23;;;;;;;7.43;1.45;;;;;;;15.36;71.81;102390.81;4943489;28;20496;-42
2022/09/20 01:08:52;;;;;;;4.47;1.20;;;;;;;15.37;71.94;102394.28;4944380;28;20059;-42
2022/09/20 01:11:18;;;;;;;5.38;1.30;;;;;;;15.41;71.78;102388.25;4946618;28;20045;-43
2022/09/20 01:13:43;;;;;;;6.15;1.40;;;;;;;15.54;71.39;102392.00;4938071;28;20035;-42
2022/09/20 01:16:11;;;;;;;5.82;1.52;;;;;;;15.65;70.81;102393.06;4943204;28;20073;-42
2022/09/20 01:18:38;;;;;;;5.70;1.20;;;;;;;15.70;71.03;102391.41;4940222;28;20093;-42
2022/09/20 01:21:05;;;;;;;4.20;1.40;;;;;;;15.75;70.28;102398.50;4945367;28;20546;-42
2022/09/20 01:23:44;;;;;;;4.30;1.30;;;;;;;15.82;70.08;102407.38;4940406;28;20038;-42
2022/09/20 01:26:28;;;;;;;6.47;1.45;;;;;;;15.78;70.38;102409.09;4944456;28;20028;-42
2022/09/20 01:29:04;;;;;;;5.75;1.30;;;;;;;15.73;70.69;102409.88;4938833;28;20049;-42
2022/09/20 01:31:38;;;;;;;7.60;1.40;;;;;;;15.75;70.37;102411.66;4936732;28;20122;-42
2022/09/20 01:34:10;;;;;;;;;;;;;;;15.69;70.75;102414.16;4954000;28;20027;-42
2022/09/20 01:36:49;;;;;;;7.32;1.52;;;;;;;15.74;70.64;102412.50;4940171;28;19944;-42
2022/09/20 01:39:23;;;;;;;3.58;1.15;;;;;;;15.74;70.51;102404.59;4946785;28;20023;-42
2022/09/20 01:41:58;;;;;;;7.75;1.52;;;;;;;15.73;70.66;102407.25;4941696;28;20043;-42
2022/09/20 01:44:36;;;;;;;5.25;1.35;;;;;;;15.67;70.84;102399.25;4946159;28;20034;-42
2022/09/20 01:47:16;;;;;;;3.88;1.15;;;;;;;15.66;70.42;102398.38;4947600;28;20059;-42
2022/09/20 01:50:03;;;;;;;3.15;1.00;;;;;;;15.62;70.09;102395.63;4938976;28;20047;-42
2022/09/20 01:53:02;;;;;;;5.82;1.10;;;;;;;15.54;69.87;102395.53;4946781;28;20030;-42
2022/09/20 01:55:49;;;;;;;5.07;1.42;;;;;;;15.37;70.43;102382.03;4939305;28;20046;-42
2022/09/20 01:58:52;;;;;;;6.15;1.50;;;;;;;15.39;69.99;102376.81;4947915;28;20117;-42
2022/09/20 02:01:42;;;;;;;5.45;1.40;;;;;;;15.34;70.50;102376.75;4924539;28;20163;-42
2022/09/20 02:04:23;;;;;;;5.63;1.67;;;;;;;14.98;72.46;102376.94;4943051;28;20130;-42
2022/09/20 02:07:10;;;;;;;4.97;1.55;;;;;;;15.00;72.52;102385.72;4940967;28;20058;-42
2022/09/20 02:09:59;;;;;;;7.15;1.80;;;;;;;15.10;72.29;102391.16;4940034;28;20070;-42
2022/09/20 02:12:53;;;;;;;7.00;1.85;;;;;;;14.95;72.93;102382.13;4938399;28;20042;-42
2022/09/20 02:15:41;;;;;;;5.65;1.63;;;;;;;14.97;72.98;102376.91;4944523;28;20074;-42
2022/09/20 02:18:37;;;;;;;4.32;1.38;;;;;;;15.00;73.01;102380.47;4943734;28;20423;-41
2022/09/20 02:21:09;;;;;;;5.60;1.80;;;;;;;14.97;73.23;102388.31;4943221;28;20027;-43
2022/09/20 02:23:40;;;;;;;7.47;1.77;;;;;;;15.22;72.33;102381.78;4937827;28;20752;-41
2022/09/20 02:26:30;;;;;;;7.30;1.77;;;;;;;15.28;71.98;102381.00;4944164;28;20062;-44
2022/09/20 02:29:14;;;;;;;6.95;1.98;;;;;;;15.32;71.79;102382.81;4945004;28;20043;-41
2022/09/20 02:31:52;;;;;;;6.90;1.70;;;;;;;15.32;71.80;102388.06;4938688;28;20268;-41
2022/09/20 02:35:04;;;;;;;6.55;1.60;;;;;;;15.34;71.78;102381.09;4943478;28;20089;-42
2022/09/20 02:37:57;;;;;;;6.65;2.00;;;;;;;15.40;71.54;102382.09;4937049;28;20065;-42
2022/09/20 02:40:44;;;;;;;6.05;1.80;;;;;;;15.39;71.31;102379.44;4943420;28;20035;-42
2022/09/20 02:43:21;;;;;;;5.32;1.67;;;;;;;15.39;71.29;102388.22;4943278;28;20054;-42
2022/09/20 02:45:53;;;;;;;5.63;1.90;;;;;;;15.38;71.33;102386.44;4947088;28;20047;-42
2022/09/20 02:48:26;;;;;;;6.47;1.73;;;;;;;15.19;71.76;102386.06;4942069;28;20494;-42
2022/09/20 02:51:11;;;;;;;6.40;2.10;;;;;;;14.93;73.29;102381.22;4943065;28;20122;-42
2022/09/20 02:53:50;;;;;;;6.15;2.15;;;;;;;15.00;72.83;102379.63;4936139;28;20035;-41
2022/09/20 02:56:46;;;;;;;6.07;2.10;;;;;;;15.04;72.79;102381.44;4945060;28;20019;-42
2022/09/20 02:59:32;;;;;;;4.72;1.90;;;;;;;15.03;72.16;102383.16;4947734;28;20043;-41
2022/09/20 03:02:13;;;;;;;8.15;2.03;;;;;;;15.09;71.50;102376.25;4943730;28;20030;-41
2022/09/20 03:04:57;;;;;;;3.65;1.70;;;;;;;15.06;70.81;102371.84;4944444;28;20043;-41
2022/09/20 03:07:50;;;;;;;4.57;1.80;;;;;;;15.06;70.43;102378.84;4938287;28;20145;-40
2022/09/20 03:10:27;;;;;;;6.85;2.00;;;;;;;14.99;70.43;102372.59;4943213;28;20751;-40
2022/09/20 03:13:16;;;;;;;6.47;1.80;;;;;;;14.92;70.61;102376.84;4940639;28;20043;-42
2022/09/20 03:16:04;;;;;;;5.93;1.70;;;;;;;14.91;70.93;102380.31;4940327;28;20298;-42
2022/09/20 03:18:38;;;;;;;5.85;1.67;;;;;;;14.94;71.17;102382.13;4940766;28;20043;-41
2022/09/20 03:21:22;;;;;;;6.53;1.70;;;;;;;14.97;71.08;102379.53;4944501;28;20034;-41
2022/09/20 03:24:06;;;;;;;7.47;1.90;;;;;;;15.01;71.55;102383.97;4947270;28;20045;-41
2022/09/20 03:27:06;;;;;;;4.27;1.77;;;;;;;15.10;71.57;102381.53;4943963;28;20039;-41
2022/09/20 03:29:50;;;;;;;6.00;1.67;;;;;;;15.11;71.53;102382.44;4936437;28;20047;-42
2022/09/20 03:32:27;;;;;;;4.00;1.83;;;;;;;15.14;71.59;102387.72;4941850;28;20056;-42
2022/09/20 03:35:01;;;;;;;5.80;1.70;;;;;;;15.19;71.27;102378.19;4943263;28;20033;-41
2022/09/20 03:37:33;;;;;;;5.32;1.30;;;;;;;15.22;71.49;102378.25;4931375;28;20042;-41
2022/09/20 03:40:01;;;;;;;5.32;1.40;;;;;;;15.24;71.70;102393.22;4942925;28;20051;-42
2022/09/20 03:42:30;;;;;;;10.75;1.95;;;;;;;14.92;72.51;102392.59;4944626;28;20042;-41
2022/09/20 03:45:04;;;;;;;7.63;1.95;;;;;;;14.88;73.03;102403.88;4942606;28;20141;-41
2022/09/20 03:47:41;;;;;;;;;;;;;;;14.91;72.82;102403.94;4933671;28;20037;-42
2022/09/20 03:50:41;;;;;;;5.22;1.70;;;;;;;15.25;71.88;102399.31;4950381;28;19929;-42
2022/09/20 03:53:31;;;;;;;4.40;1.50;;;;;;;15.36;71.38;102397.81;4945039;28;20031;-42
2022/09/20 03:56:14;;;;;;;5.38;1.73;;;;;;;14.97;71.90;102398.81;4946204;28;20027;-42
2022/09/20 03:59:01;;;;;;;6.05;1.65;;;;;;;15.23;71.55;102393.16;4946951;28;20117;-42
2022/09/20 04:01:48;;;;;;;5.00;1.63;;;;;;;14.83;73.03;102394.13;4943219;28;20940;-42
2022/09/20 04:04:28;;;;;;;6.68;1.70;;;;;;;14.90;72.98;102403.91;4945137;28;20501;-42
2022/09/20 04:07:20;;;;;;;5.97;1.50;;;;;;;14.83;73.56;102410.78;4939626;28;20039;-41
2022/09/20 04:09:48;;;;;;;4.97;1.60;;;;;;;14.93;73.46;102406.59;4940691;28;20034;-41
2022/09/20 04:12:42;;;;;;;6.20;1.88;;;;;;;15.15;72.77;102408.78;4933982;28;20070;-41
2022/09/20 04:15:28;;;;;;;7.10;1.45;;;;;;;15.28;71.60;102402.91;4942974;28;20027;-42
2022/09/20 04:18:08;;;;;;;7.00;1.63;;;;;;;14.99;72.13;102404.09;4941316;28;20129;-41
2022/09/20 04:20:47;;;;;;;5.05;1.35;;;;;;;14.83;73.31;102405.53;4941649;28;20521;-42
2022/09/20 04:23:41;;;;;;;7.05;1.30;;;;;;;15.09;72.33;102407.78;4942149;28;20027;-42
2022/09/20 04:26:07;;;;;;;6.45;1.42;;;;;;;15.16;71.99;102404.41;4941209;28;20039;-41
2022/09/20 04:29:04;;;;;;;4.53;1.30;;;;;;;15.31;72.03;102402.06;4944355;28;20042;-42
2022/09/20 04:31:40;;;;;;;7.45;1.50;;;;;;;14.96;73.18;102402.28;4932895;28;20054;-42
2022/09/20 04:34:15;;;;;;;5.85;1.67;;;;;;;14.98;73.32;102416.34;4942611;28;20069;-41
2022/09/20 04:37:02;;;;;;;6.60;1.50;;;;;;;15.08;73.05;102412.16;4944240;28;20414;-42
2022/09/20 04:39:42;;;;;;;5.70;1.35;;;;;;;15.19;72.65;102410.59;4947348;28;20027;-41
2022/09/20 04:42:26;;;;;;;8.52;1.58;;;;;;;15.39;72.32;102410.97;4944181;28;20050;-41
2022/09/20 04:45:16;;;;;;;6.55;1.30;;;;;;;15.30;72.32;102421.34;4945926;28;20057;-42
2022/09/20 04:48:03;;;;;;;6.25;1.30;;;;;;;15.50;71.59;102405.91;4941391;28;20031;-42
2022/09/20 04:50:36;;;;;;;4.07;1.30;;;;;;;15.61;71.10;102410.56;4944076;28;20122;-42
2022/09/20 04:53:29;;;;;;;5.07;1.30;;;;;;;15.59;71.08;102412.25;4944580;28;20105;-41
2022/09/20 04:56:33;;;;;;;3.63;1.25;;;;;;;15.16;72.68;102413.19;4958416;28;20031;-42
2022/09/20 04:59:04;;;;;;;3.97;1.17;;;;;;;15.57;71.48;102416.59;4940812;28;20043;-41
2022/09/20 05:01:53;;;;;;;7.43;1.50;;;;;;;15.44;71.90;102410.19;4934619;28;20129;-42
2022/09/20 05:04:44;;;;;;;7.03;1.52;;;;;;;15.32;72.42;102411.72;4948784;28;20062;-41
2022/09/20 05:07:21;;;;;;;6.35;1.50;;;;;;;15.31;72.49;102407.31;4943753;28;20054;-42
2022/09/20 05:10:14;;;;;;;5.10;1.40;;;;;;;15.31;72.18;102409.94;4948252;28;20626;-41
2022/09/20 05:13:19;;;;;;;6.07;1.48;;;;;;;15.39;71.84;102414.50;4937804;28;20059;-42
2022/09/20 05:15:57;;;;;;;5.93;1.55;;;;;;;15.33;72.27;102409.13;4946289;28;20712;-41
2022/09/20 05:18:41;;;;;;;4.95;1.58;;;;;;;15.42;71.54;102414.56;4950409;28;20175;-41
2022/09/20 05:21:27;;;;;;;3.03;1.42;;;;;;;15.44;71.58;102418.09;4949031;28;20027;-41
2022/09/20 05:24:51;;;;;;;5.18;1.45;;;;;;;15.47;71.63;102411.13;4937935;28;20601;-42
2022/09/20 05:27:39;;;;;;;5.32;1.40;;;;;;;15.53;71.64;102413.88;4948286;28;20077;-41
2022/09/20 05:30:22;;;;;;;6.50;1.42;;;;;;;15.51;71.72;102405.94;4945770;28;20560;-42
2022/09/20 05:33:04;;;;;;;6.15;1.45;;;;;;;15.58;71.67;102412.22;4949334;28;20054;-41
2022/09/20 05:35:56;;;;;;;4.13;1.83;;;;;;;15.51;71.99;102415.56;4939158;28;20074;-42
2022/09/20 05:38:33;;;;;;;3.50;1.38;;;;;;;15.59;71.95;102420.13;4946277;28;20077;-42
2022/09/20 05:41:30;;;;;;;6.95;1.70;;;;;;;15.62;71.72;102419.28;4951374;28;20078;-41
2022/09/20 05:44:49;;;;;;;4.85;1.60;;;;;;;15.58;71.88;102418.38;4944788;28;20042;-41
2022/09/20 05:47:34;;;;;;;4.78;1.60;;;;;;;15.65;71.76;102422.88;4932135;28;20035;-41
2022/09/20 05:50:17;;;;;;;;;;;;;;;15.67;71.79;102425.53;4946681;28;20481;-42
2022/09/20 05:53:17;;;;;;;8.60;2.05;;;;;;;15.66;71.71;102422.03;4944050;28;19925;-41
2022/09/20 05:56:06;;;;;;;6.97;1.88;;;;;;;15.70;71.89;102418.56;4941389;28;20054;-42
2022/09/20 05:58:56;;;;;;;5.07;1.70;;;;;;;15.71;71.63;102416.84;4947225;28;20519;-42
2022/09/20 06:01:29;;;;;;;5.38;1.80;;;;;;;15.73;71.72;102426.53;4938674;28;20869;-41
2022/09/20 06:04:06;;;;;;;5.18;1.90;;;;;;;15.65;71.83;102419.34;4943931;28;20023;-41
2022/09/20 06:06:55;;;;;;;5.82;1.80;;;;;;;15.69;72.18;102431.69;4943108;28;20047;-41
2022/09/20 06:09:50;;;;;;;3.05;2.00;;;;;;;15.85;71.90;102432.84;4942247;28;20035;-42
2022/09/20 06:12:28;;;;;;;5.15;1.73;;;;;;;15.91;72.00;102428.56;4939151;28;20518;-41
2022/09/20 06:15:02;;;;;;;5.00;1.80;;;;;;;15.86;72.35;102438.09;4945398;28;20047;-42
2022/09/20 06:17:28;;;;;;;;;;;;;;;15.96;72.49;102445.31;4937092;28;20106;-42
2022/09/20 06:20:33;;;;;;;6.50;1.83;;;;;;;16.13;72.04;102438.56;4946101;28;20515;-42
2022/09/20 06:23:00;;;;;;;4.97;1.77;;;;;;;16.31;72.49;102440.59;4944567;28;20030;-42
2022/09/20 06:25:47;;;;;;;9.35;2.22;;;;;;;16.85;72.73;102440.47;4938526;28;20041;-41
2022/09/20 06:28:16;;;;;;;5.22;1.70;;;;;;;17.57;67.88;102442.16;4943019;28;20449;-41
2022/09/20 06:30:49;;;;;;;4.88;1.70;;;;;;;18.07;66.78;102445.25;4946106;28;20047;-42
2022/09/20 06:33:17;;;;;;;8.50;1.83;;;;;;;18.69;63.29;102435.97;4949583;28;20035;-41
2022/09/20 06:41:57;;;;;;;7.03;2.05;;;;;;;20.52;55.48;102433.56;4943393;28;20045;-42
2022/09/20 06:44:22;;;;;;;8.80;2.40;;;;;;;20.53;55.15;102431.81;4944055;28;20047;-41
2022/09/20 06:46:48;;;;;;;8.30;2.38;;;;;;;20.79;55.01;102432.63;4950350;28;20611;-41
2022/09/20 06:49:13;;;;;;;10.05;2.92;;;;;;;20.78;54.34;102432.59;4936296;28;20062;-42
2022/09/20 06:51:39;;;;;;;8.02;2.35;;;;;;;20.50;55.52;102437.09;4939727;28;20072;-42
2022/09/20 06:54:07;;;;;;;6.18;2.10;;;;;;;20.54;55.04;102446.84;4940989;28;20538;-42
2022/09/20 06:56:35;;;;;;;6.35;1.90;;;;;;;20.37;56.38;102443.34;4941751;28;20117;-42
2022/09/20 06:59:01;;;;;;;5.35;2.25;;;;;;;20.77;53.69;102444.09;4944178;28;20031;-42
2022/09/20 07:01:26;;;;;;;5.47;2.10;;;;;;;21.19;52.42;102443.03;4935234;28;20113;-42
2022/09/20 07:03:52;;;;;;;5.22;1.70;;;;;;;21.27;51.52;102449.19;4942830;28;20067;-42
2022/09/20 07:06:18;;;;;;;6.22;1.65;;;;;;;21.47;52.71;102447.28;4939974;28;20039;-42
2022/09/20 07:08:44;;;;;;;5.47;1.60;;;;;;;21.81;51.20;102451.47;4946428;28;20038;-42
2022/09/20 07:11:15;;;;;;;4.55;1.60;;;;;;;22.17;50.13;102439.66;4942490;28;20118;-41
2022/09/20 07:13:41;;;;;;;6.22;1.73;;;;;;;21.95;50.57;102446.09;4932760;28;20137;-42
2022/09/20 07:16:10;;;;;;;4.18;1.55;;;;;;;21.83;51.24;102448.81;4937122;28;20061;-42
2022/09/20 07:18:35;;;;;;;5.35;1.55;;;;;;;22.10;50.12;102447.69;4935279;28;21002;-42
2022/09/20 07:21:01;;;;;;;7.45;1.60;;;;;;;22.31;49.32;102449.28;4945665;28;20022;-42
2022/09/20 07:23:28;;;;;;;6.10;1.50;;;;;;;22.30;49.20;102448.38;4940661;28;20033;-43
2022/09/20 07:25:57;;;;;;;6.43;1.55;;;;;;;21.82;49.36;102453.22;4947108;28;20045;-40
2022/09/20 07:28:22;;;;;;;5.32;1.60;;;;;;;21.16;50.95;102456.34;4944085;28;20477;-42
2022/09/20 07:30:48;;;;;;;7.10;1.80;;;;;;;20.41;53.98;102455.69;4945736;28;20121;-44
2022/09/20 07:33:19;;;;;;;6.35;1.67;;;;;;;19.78;54.62;102455.69;4945078;28;20557;-43
2022/09/20 07:35:45;;;;;;;7.22;2.05;;;;;;;19.64;55.62;102465.38;4932869;28;20031;-43
2022/09/20 07:38:11;;;;;;;4.35;1.77;;;;;;;19.12;57.69;102467.00;4933976;28;20521;-43
2022/09/20 07:40:36;;;;;;;5.32;1.60;;;;;;;18.91;56.14;102461.63;4941445;28;20043;-43
2022/09/20 07:43:02;;;;;;;7.22;1.95;;;;;;;19.04;56.71;102468.72;4937304;28;20112;-43
2022/09/20 07:45:27;;;;;;;5.38;1.63;;;;;;;19.02;56.39;102470.50;4936441;28;20133;-43
2022/09/20 07:47:53;;;;;;;8.48;1.60;;;;;;;18.92;57.63;102474.84;4942968;28;20613;-43
2022/09/20 07:50:18;;;;;;;7.07;1.63;;;;;;;18.94;59.02;102470.47;4946139;28;20535;-43
2022/09/20 07:52:44;;;;;;;7.95;1.85;;;;;;;19.03;58.55;102478.41;4943507;28;20054;-43
2022/09/20 07:55:09;;;;;;;6.60;1.50;;;;;;;19.21;58.82;102482.03;4941194;28;20038;-43
2022/09/20 07:57:36;;;;;;;6.43;1.70;;;;;;;19.26;57.62;102486.44;4943297;28;20057;-42
2022/09/20 08:00:05;;;;;;;5.50;1.40;;;;;;;19.25;57.44;102492.59;4934799;28;20035;-43
2022/09/20 08:02:30;;;;;;;3.55;1.20;;;;;;;19.26;54.99;102491.75;4947585;28;20114;-43
2022/09/20 08:04:55;;;;;;;4.88;1.17;;;;;;;19.11;54.37;102486.38;4949605;28;20123;-43
2022/09/20 08:07:21;;;;;;;7.40;1.60;;;;;;;19.16;54.34;102491.69;4941664;28;20153;-42
2022/09/20 08:09:46;;;;;;;4.20;1.27;;;;;;;19.00;52.81;102507.50;4937852;28;20030;-42
2022/09/20 08:12:13;;;;;;;4.03;1.10;;;;;;;19.10;53.34;102504.88;4947346;28;20038;-41
2022/09/20 08:14:38;;;;;;;3.33;1.23;;;;;;;18.91;52.32;102503.91;4952765;28;20393;-41
2022/09/20 08:17:04;;;;;;;4.97;1.30;;;;;;;18.61;51.59;102505.50;4950718;28;20041;-41
2022/09/20 08:19:29;;;;;;;5.25;1.13;;;;;;;18.92;52.25;102505.66;4950000;28;20042;-42
2022/09/20 08:21:54;;;;;;;5.22;1.20;;;;;;;18.92;53.42;102510.97;4949868;28;20445;-41
2022/09/20 08:24:21;;;;;;;6.45;1.30;;;;;;;18.61;50.65;102504.63;4948488;28;20084;-41
2022/09/20 08:26:47;;;;;;;4.53;1.10;;;;;;;18.79;50.42;102507.38;4949879;28;20976;-41
2022/09/20 08:29:14;;;;;;;3.90;1.00;;;;;;;18.92;50.52;102509.19;4948520;28;20031;-44
2022/09/20 08:31:41;;;;;;;7.03;1.20;;;;;;;18.95;51.48;102511.88;4940991;28;20545;-42
2022/09/20 08:34:08;;;;;;;4.32;0.90;;;;;;;18.77;50.33;102511.78;4944778;28;20023;-41
2022/09/20 08:36:35;;;;;;;6.80;1.35;;;;;;;18.76;50.55;102517.06;4947920;28;20131;-41
2022/09/20 08:39:01;;;;;;;7.88;1.20;;;;;;;18.66;50.13;102520.53;4955226;28;20082;-42
2022/09/20 08:41:26;;;;;;;4.00;1.10;;;;;;;18.94;51.97;102527.72;4946385;28;20027;-41
2022/09/20 08:44:02;;;;;;;4.95;1.10;;;;;;;18.74;49.89;102526.72;4953836;28;20059;-40
2022/09/20 08:46:32;;;;;;;4.35;1.05;;;;;;;18.74;51.01;102521.44;4946289;28;20026;-41
2022/09/20 08:48:58;;;;;;;2.97;1.10;;;;;;;18.89;50.67;102524.19;4949166;28;20038;-41
2022/09/20 08:51:29;;;;;;;4.60;0.90;;;;;;;18.97;51.01;102525.06;4944997;28;20023;-41
2022/09/20 08:53:57;;;;;;;3.83;1.30;;;;;;;18.87;51.76;102531.19;4944580;28;20054;-41
2022/09/20 08:56:27;;;;;;;6.35;1.17;;;;;;;19.16;51.79;102536.63;4950927;28;20027;-41
2022/09/20 08:58:53;;;;;;;4.85;1.08;;;;;;;18.86;51.42;102530.31;4940395;28;20458;-41
2022/09/20 09:01:24;;;;;;;6.63;1.20;;;;;;;18.61;53.43;102529.28;4944025;28;20039;-42
2022/09/20 09:03:51;;;;;;;3.80;1.23;;;;;;;18.94;53.60;102528.59;4909413;28;20405;-41
2022/09/20 09:06:20;;;;;;;3.70;1.13;;;;;;;18.85;51.31;102525.91;4944134;28;20053;-41
2022/09/20 09:08:48;;;;;;;4.90;1.30;;;;;;;19.04;51.66;102530.41;4953546;28;20086;-41
2022/09/20 09:11:15;;;;;;;4.90;1.25;;;;;;;18.82;51.24;102533.81;4943092;28;20066;-41
2022/09/20 09:13:52;;;;;;;5.68;1.20;;;;;;;18.87;52.28;102534.72;4938713;28;20341;-41
2022/09/20 09:16:19;;;;;;;8.73;1.30;;;;;;;18.63;51.58;102532.81;4945822;28;20027;-42
2022/09/20 09:18:48;;;;;;;7.03;1.42;;;;;;;18.69;52.10;102531.97;4943543;28;20113;-41
2022/09/20 09:21:22;;;;;;;5.68;1.35;;;;;;;19.11;51.39;102533.97;4946254;28;20650;-41
2022/09/20 09:24:00;;;;;;;7.28;1.20;;;;;;;19.09;51.38;102540.16;4927980;28;20050;-41
2022/09/20 09:26:26;;;;;;;4.43;1.40;;;;;;;18.95;53.09;102535.66;4944658;28;20031;-41
2022/09/20 09:29:20;;;;;;;7.88;1.40;;;;;;;19.19;50.07;102540.19;4949782;28;20035;-41
2022/09/20 09:31:49;;;;;;;4.78;1.20;;;;;;;19.12;52.77;102534.84;4944605;28;20035;-42
2022/09/20 09:34:23;;;;;;;4.03;0.95;;;;;;;19.52;50.83;102536.78;4945948;28;20035;-42
2022/09/20 09:36:48;;;;;;;5.00;1.10;;;;;;;19.73;50.53;102535.97;4939432;28;20111;-41
2022/09/20 09:39:21;;;;;;;4.32;1.25;;;;;;;19.38;51.57;102533.19;4949981;28;20038;-42
2022/09/20 09:41:46;;;;;;;4.60;1.38;;;;;;;19.08;52.15;102539.25;4939274;28;20078;-41
2022/09/20 09:44:32;;;;;;;9.82;1.20;;;;;;;19.61;49.18;102543.88;4938330;28;20469;-42
2022/09/20 09:46:58;;;;;;;3.58;1.15;;;;;;;20.14;50.01;102539.53;4940747;28;20536;-42
2022/09/20 09:49:34;;;;;;;2.35;0.93;;;;;;;20.67;48.60;102536.03;4935094;28;20043;-43
2022/09/20 09:52:16;;;;;;;4.53;1.25;;;;;;;20.84;45.12;102526.25;4947895;28;20038;-43
2022/09/20 09:54:47;;;;;;;4.95;1.08;;;;;;;19.52;49.91;102531.50;4935755;28;20118;-42
2022/09/20 09:57:52;;;;;;;4.00;1.10;;;;;;;19.09;49.35;102533.06;4940838;28;20094;-41
2022/09/20 10:00:22;;;;;;;5.20;1.27;;;;;;;19.47;49.12;102542.94;4944867;28;20062;-41
2022/09/20 10:02:55;;;;;;;7.10;1.48;;;;;;;19.72;47.09;102539.50;4941725;28;20555;-40
2022/09/20 10:05:30;;;;;;;7.25;1.27;;;;;;;19.75;46.90;102540.41;4948428;28;20073;-42
2022/09/20 10:08:22;;;;;;;6.38;1.13;;;;;;;19.47;48.46;102543.84;4941677;28;23306;-40
2022/09/20 10:11:05;;;;;;;7.57;1.75;;;;;;;19.07;52.27;102548.06;4929826;28;20682;-40
2022/09/20 10:13:46;;;;;;;4.53;1.50;;;;;;;19.71;51.11;102554.47;4937155;28;20051;-42
2022/09/20 10:16:30;;;;;;;4.25;1.40;;;;;;;19.50;51.19;102556.19;4948707;28;20034;-41
2022/09/20 10:19:11;;;;;;;4.95;1.42;;;;;;;19.46;51.35;102554.44;4945542;28;20047;-41
2022/09/20 10:22:00;;;;;;;9.27;1.50;;;;;;;19.17;50.97;102556.91;4941687;28;20077;-41
2022/09/20 10:24:29;;;;;;;6.88;1.70;;;;;;;19.16;51.57;102553.38;4941212;28;20398;-41
2022/09/20 10:27:15;;;;;;;4.53;1.60;;;;;;;18.98;51.44;102556.81;4940500;28;20790;-41
2022/09/20 10:30:11;;;;;;;8.65;1.60;;;;;;;19.27;52.19;102545.50;4935973;28;20594;-41
2022/09/20 10:32:52;;;;;;;6.85;1.75;;;;;;;19.43;51.67;102558.78;4944567;28;20625;-40
2022/09/20 10:35:28;;;;;;;5.15;1.55;;;;;;;18.70;52.59;102556.66;4947719;28;20205;-40
2022/09/20 10:38:18;;;;;;;7.15;2.00;;;;;;;18.96;52.61;102555.94;4947378;28;20550;-41
2022/09/20 10:44:03;;;;;;;5.78;1.63;;;;;;;18.92;52.86;102554.13;4933696;28;20089;-42
2022/09/20 10:47:06;;;;;;;7.72;1.70;;;;;;;18.98;52.14;102553.28;4948313;28;20034;-41
2022/09/20 10:49:50;;;;;;;4.53;1.50;;;;;;;19.30;50.42;102553.44;4938565;28;20129;-41
2022/09/20 10:52:46;;;;;;;6.63;1.40;;;;;;;19.24;50.75;102548.13;4948601;28;20027;-41
2022/09/20 10:55:30;;;;;;;5.03;1.50;;;;;;;19.57;50.08;102545.66;4945123;28;20047;-41
2022/09/20 10:58:00;;;;;;;4.63;1.48;;;;;;;19.51;50.12;102557.97;4947739;28;20100;-41
2022/09/20 11:00:44;;;;;;;6.97;1.60;;;;;;;19.60;50.95;102550.94;4941144;28;20073;-41
2022/09/20 11:03:30;;;;;;;3.47;1.30;;;;;;;19.69;50.05;102555.38;4949927;28;20082;-42
2022/09/20 11:06:08;;;;;;;5.10;1.40;;;;;;;19.55;50.33;102554.44;4942292;28;20031;-41
2022/09/20 11:08:35;;;;;;;6.13;1.40;;;;;;;19.84;49.79;102558.94;4943213;28;21130;-40
2022/09/20 11:11:09;;;;;;;4.10;1.27;;;;;;;19.59;47.85;102557.09;4941215;28;20027;-40
2022/09/20 11:13:34;;;;;;;4.07;1.10;;;;;;;18.91;50.39;102551.47;4938565;28;20057;-40
2022/09/20 11:16:15;;;;;;;7.38;1.30;;;;;;;19.65;49.00;102556.22;4948983;28;20333;-40
2022/09/20 11:19:04;;;;;;;6.95;1.40;;;;;;;20.45;46.79;102559.00;4941624;28;20042;-41
2022/09/20 11:21:36;;;;;;;8.77;1.70;;;;;;;20.75;47.73;102549.22;4938279;28;20038;-42
2022/09/20 11:24:06;;;;;;;4.50;1.08;;;;;;;20.76;45.58;102554.53;4932727;28;20047;-40
2022/09/20 11:26:39;;;;;;;9.07;1.52;;;;;;;19.89;48.36;102552.75;4946878;28;20065;-41
2022/09/20 11:29:10;;;;;;;4.17;1.20;;;;;;;20.15;46.99;102567.78;4934737;28;20106;-40
2022/09/20 11:31:42;;;;;;;4.70;1.10;;;;;;;19.97;47.27;102567.78;4933375;28;20062;-41
2022/09/20 11:34:30;;;;;;;6.80;1.30;;;;;;;19.57;48.67;102566.81;4946902;28;20030;-41
2022/09/20 11:37:00;;;;;;;7.03;1.20;;;;;;;19.75;49.31;102564.22;4942331;28;20134;-41
2022/09/20 11:39:31;;;;;;;5.30;1.10;;;;;;;19.82;48.43;102562.47;4942841;28;20031;-41
2022/09/20 11:42:00;;;;;;;3.08;0.90;;;;;;;19.92;47.57;102560.72;4939222;28;20054;-41
2022/09/20 22:29:35;;;;;;;7.57;1.90;;;;;;;16.02;63.77;102770.75;6220073;22;20016;-39
2022/09/20 22:32:00;;;;;;;5.90;2.08;;;;;;;16.10;63.61;102777.91;6225404;23;20604;-36
2022/09/20 22:34:26;;;;;;;5.35;2.10;;;;;;;16.17;63.45;102771.94;6222139;22;20466;-37
2022/09/20 22:36:52;;;;;;;3.33;1.88;;;;;;;16.17;63.54;102771.94;6188521;23;20780;-36
2022/09/20 22:39:18;;;;;;;5.07;2.30;;;;;;;16.13;64.13;102770.09;6189496;23;20016;-36
2022/09/20 22:41:46;;;;;;;5.32;2.28;;;;;;;16.08;64.41;102770.88;6189353;23;20447;-36
2022/09/20 22:44:12;;;;;;;5.38;2.38;;;;;;;16.09;64.64;102772.66;6190593;23;20295;-36
2022/09/20 22:46:38;;;;;;;5.43;2.20;;;;;;;16.12;64.67;102770.06;6185794;23;20523;-36
2022/09/20 22:49:04;;;;;;;5.78;2.28;;;;;;;16.19;64.70;102771.97;6191786;23;20004;-36
2022/09/20 22:51:34;;;;;;;5.28;2.53;;;;;;;16.22;64.42;102762.38;6192586;23;20086;-36
2022/09/20 22:54:04;;;;;;;7.55;2.70;;;;;;;16.19;64.67;102769.34;6188549;22;20560;-36
2022/09/20 22:56:30;;;;;;;5.53;2.90;;;;;;;16.12;65.12;102768.31;6192246;23;20040;-37
2022/09/20 22:59:07;;;;;;;5.93;2.60;;;;;;;16.16;64.98;102774.56;6188202;23;20008;-36
2022/09/20 23:01:35;;;;;;;7.85;3.00;;;;;;;16.18;64.77;102776.34;6192345;23;20044;-37
2022/09/20 23:04:08;;;;;;;7.80;2.80;;;;;;;16.14;64.76;102773.63;6193817;23;20083;-36